Time;durP1;ratioP1;P1;durP2;ratioP2;P2;SDS_P1;SDS_P2;PMS_P1;PMS_P2;Temp;Humidity;BMP_temperature;BMP_pressure;BME280_temperature;BME280_humidity;BME280_pressure;Samples;Min_cycle;Max_cycle;Signal;HPM_P1;HPM_P2
2023/09/29 00:00:37;;;;;;;4.47;2.25;;;20.00;76.10;;;;;;10492562;28;20078;-56
2023/09/29 00:05:38;;;;;;;3.65;2.30;;;20.00;76.00;;;;;;10492709;28;20361;-56
2023/09/29 00:10:40;;;;;;;5.53;2.60;;;20.00;76.00;;;;;;10490804;28;20031;-56
2023/09/29 00:15:40;;;;;;;5.00;2.50;;;20.00;76.00;;;;;;10492413;28;20028;-55
2023/09/29 00:20:41;;;;;;;5.97;2.38;;;20.00;76.00;;;;;;10491982;28;20223;-56
2023/09/29 00:25:42;;;;;;;5.65;2.80;;;20.00;76.10;;;;;;10492295;28;20414;-56
2023/09/29 00:30:42;;;;;;;3.47;2.25;;;20.00;76.00;;;;;;10514808;28;20032;-56
2023/09/29 00:35:43;;;;;;;4.38;2.25;;;20.00;76.00;;;;;;10533685;28;20020;-56
2023/09/29 00:40:44;;;;;;;6.78;2.50;;;20.00;76.00;;;;;;10532197;28;20035;-56
2023/09/29 00:45:49;;;;;;;6.60;2.35;;;20.00;76.00;;;;;;10525090;28;20020;-56
2023/09/29 00:50:50;;;;;;;2.88;1.98;;;20.00;76.00;;;;;;10490063;28;20028;-56
2023/09/29 00:55:51;;;;;;;3.75;2.10;;;20.00;76.60;;;;;;10491453;28;20085;-56
2023/09/29 01:00:52;;;;;;;3.70;2.70;;;19.90;75.90;;;;;;10491447;28;20097;-56
2023/09/29 01:05:53;;;;;;;3.85;2.47;;;20.00;76.00;;;;;;10491131;28;20021;-57
2023/09/29 01:10:53;;;;;;;3.85;2.10;;;20.00;76.00;;;;;;10490975;28;20033;-55
2023/09/29 01:15:54;;;;;;;4.28;2.45;;;20.00;76.00;;;;;;10489875;28;20121;-56
2023/09/29 01:20:55;;;;;;;3.00;1.80;;;20.00;76.00;;;;;;10490324;28;20028;-56
2023/09/29 01:25:56;;;;;;;4.20;2.08;;;20.00;76.00;;;;;;10489494;28;20056;-56
2023/09/29 01:30:57;;;;;;;3.83;2.08;;;20.00;76.00;;;;;;10515149;28;20538;-56
2023/09/29 01:35:58;;;;;;;4.35;3.08;;;20.00;76.00;;;;;;10532256;28;20026;-57
2023/09/29 01:40:59;;;;;;;3.53;2.00;;;19.90;75.90;;;;;;10531721;28;20025;-56
2023/09/29 01:46:00;;;;;;;4.85;2.72;;;20.00;76.20;;;;;;10520436;28;20464;-56
2023/09/29 01:51:04;;;;;;;6.35;3.05;;;20.00;76.00;;;;;;10491358;28;20028;-56
2023/09/29 01:56:04;;;;;;;4.93;2.67;;;20.00;76.00;;;;;;10497550;28;20036;-56
2023/09/29 02:01:05;;;;;;;4.40;2.20;;;20.00;76.00;;;;;;10497452;28;20028;-56
2023/09/29 02:06:06;;;;;;;2.92;2.00;;;20.00;75.90;;;;;;10497255;28;20091;-57
2023/09/29 02:11:08;;;;;;;4.78;2.20;;;20.00;76.00;;;;;;10497293;28;20036;-56
2023/09/29 02:16:15;;;;;;;5.38;2.53;;;20.00;76.00;;;;;;10496209;28;20053;-56
2023/09/29 02:21:23;;;;;;;3.00;2.17;;;19.90;75.90;;;;;;10496654;28;20039;-56
2023/09/29 02:26:26;;;;;;;3.35;2.17;;;20.00;76.00;;;;;;10496383;28;20033;-56
2023/09/29 02:31:27;;;;;;;3.65;2.40;;;20.00;75.90;;;;;;10496466;28;20391;-56
2023/09/29 02:36:27;;;;;;;2.65;2.13;;;20.00;75.90;;;;;;10495819;28;20067;-56
2023/09/29 02:41:29;;;;;;;3.83;2.25;;;20.00;76.00;;;;;;10495899;28;20056;-56
2023/09/29 02:46:30;;;;;;;4.88;2.13;;;20.00;75.90;;;;;;10495286;28;20024;-56
2023/09/29 02:51:31;;;;;;;3.72;2.15;;;19.90;75.90;;;;;;10495850;28;20037;-56
2023/09/29 02:56:31;;;;;;;3.38;1.98;;;19.90;75.90;;;;;;10495129;28;20399;-56
2023/09/29 03:01:32;;;;;;;4.22;2.55;;;20.00;75.90;;;;;;10495219;28;20033;-56
2023/09/29 03:06:33;;;;;;;4.38;2.10;;;19.90;75.90;;;;;;10493854;28;20024;-56
2023/09/29 03:11:34;;;;;;;5.18;2.47;;;19.90;75.90;;;;;;10495014;28;20036;-56
2023/09/29 03:16:35;;;;;;;3.38;2.38;;;19.90;75.90;;;;;;10494495;28;20126;-56
2023/09/29 03:21:36;;;;;;;3.78;2.78;;;19.90;75.80;;;;;;10494374;28;20074;-56
2023/09/29 03:26:37;;;;;;;5.28;3.03;;;19.90;75.90;;;;;;10493966;28;20032;-56
2023/09/29 03:31:39;;;;;;;4.07;2.60;;;19.90;75.80;;;;;;10493922;28;20032;-56
2023/09/29 03:36:39;;;;;;;4.20;2.55;;;19.90;75.90;;;;;;10493669;28;20037;-56
2023/09/29 03:41:40;;;;;;;4.70;2.53;;;19.90;75.80;;;;;;10493334;28;20021;-56
2023/09/29 03:46:41;;;;;;;3.15;1.90;;;19.90;75.80;;;;;;10493039;28;20391;-56
2023/09/29 03:51:43;;;;;;;5.25;1.90;;;19.90;75.80;;;;;;10493388;28;20047;-56
2023/09/29 03:56:43;;;;;;;9.05;2.53;;;19.90;75.80;;;;;;10492612;28;20230;-56
2023/09/29 04:01:45;;;;;;;3.58;2.00;;;19.90;75.80;;;;;;10492712;28;20025;-56
2023/09/29 04:06:45;;;;;;;3.03;2.13;;;19.90;75.90;;;;;;10492144;28;20025;-56
2023/09/29 04:11:49;;;;;;;2.95;1.77;;;19.90;75.90;;;;;;10480616;28;20041;-56
2023/09/29 04:16:50;;;;;;;3.75;1.90;;;19.90;76.50;;;;;;10471294;28;20495;-56
2023/09/29 04:21:50;;;;;;;2.90;1.98;;;19.90;75.90;;;;;;10467095;28;20041;-57
2023/09/29 04:26:51;;;;;;;3.95;2.22;;;19.90;75.90;;;;;;10470198;28;20093;-57
2023/09/29 04:31:52;;;;;;;4.68;2.22;;;19.90;75.90;;;;;;10472771;28;20063;-57
2023/09/29 04:36:53;;;;;;;3.47;2.15;;;19.90;75.90;;;;;;10467716;28;20491;-57
2023/09/29 04:41:54;;;;;;;3.90;2.75;;;19.90;76.00;;;;;;10466591;28;20064;-57
2023/09/29 04:46:55;;;;;;;8.32;3.80;;;19.90;76.00;;;;;;10469320;28;20048;-57
2023/09/29 04:51:55;;;;;;;4.88;2.90;;;19.90;76.00;;;;;;10465144;28;20663;-57
2023/09/29 04:56:56;;;;;;;5.40;4.90;;;19.90;76.00;;;;;;10465321;28;20041;-58
2023/09/29 05:01:57;;;;;;;5.75;5.22;;;19.90;76.10;;;;;;10468039;28;20427;-57
2023/09/29 05:06:58;;;;;;;6.88;4.88;;;19.90;76.70;;;;;;10470182;28;20321;-57
2023/09/29 05:11:58;;;;;;;13.07;5.03;;;20.10;77.00;;;;;;10459517;28;20494;-57
2023/09/29 05:16:59;;;;;;;9.10;4.68;;;20.10;77.00;;;;;;10464767;28;20228;-57
2023/09/29 05:22:00;;;;;;;16.95;6.18;;;20.20;77.00;;;;;;10466397;28;20036;-57
2023/09/29 05:27:01;;;;;;;14.10;6.18;;;20.20;76.90;;;;;;10484583;28;20036;-56
2023/09/29 05:32:02;;;;;;;18.88;6.97;;;20.30;76.50;;;;;;10504036;28;20033;-58
2023/09/29 05:37:03;;;;;;;11.10;5.55;;;20.30;76.70;;;;;;10475060;28;20405;-57
2023/09/29 05:42:04;;;;;;;11.25;4.75;;;20.40;76.80;;;;;;10476133;28;20032;-57
2023/09/29 05:47:04;;;;;;;10.18;5.55;;;20.40;76.90;;;;;;10494707;28;20739;-57
2023/09/29 05:52:05;;;;;;;14.52;5.82;;;20.40;76.60;;;;;;10496055;28;20031;-56
2023/09/29 05:57:06;;;;;;;16.85;6.18;;;20.30;76.80;;;;;;10473506;28;20075;-58
2023/09/29 06:02:07;;;;;;;16.80;5.60;;;20.30;77.30;;;;;;10476791;28;20581;-56
2023/09/29 06:07:09;;;;;;;14.57;5.78;;;20.30;77.10;;;;;;10469939;28;20029;-57
2023/09/29 06:12:09;;;;;;;16.15;5.75;;;20.30;77.30;;;;;;10455348;28;20033;-57
2023/09/29 06:17:10;;;;;;;9.18;5.07;;;20.30;76.90;;;;;;10453744;28;20049;-58
2023/09/29 06:22:11;;;;;;;14.55;5.38;;;20.20;77.20;;;;;;10474752;28;20028;-57
2023/09/29 06:27:12;;;;;;;14.15;5.43;;;20.30;77.70;;;;;;10494243;28;20020;-57
2023/09/29 06:32:13;;;;;;;11.02;5.05;;;20.20;77.20;;;;;;10486175;28;20070;-57
2023/09/29 06:37:14;;;;;;;11.32;5.45;;;20.20;77.40;;;;;;10492464;28;20509;-57
2023/09/29 06:42:15;;;;;;;9.93;4.60;;;20.20;77.30;;;;;;10489952;28;20068;-57
2023/09/29 06:47:16;;;;;;;13.40;5.07;;;20.20;77.60;;;;;;10482472;28;20025;-57
2023/09/29 06:52:17;;;;;;;11.00;4.88;;;20.20;77.60;;;;;;10492085;28;20039;-57
2023/09/29 06:57:17;;;;;;;10.52;3.80;;;20.20;77.50;;;;;;10493182;28;20037;-57
2023/09/29 07:02:18;;;;;;;11.52;4.43;;;20.20;77.50;;;;;;10494007;28;20427;-57
2023/09/29 07:07:19;;;;;;;8.73;4.35;;;20.20;77.50;;;;;;10490223;28;20381;-57
2023/09/29 07:12:20;;;;;;;9.07;4.18;;;20.20;77.50;;;;;;10475153;28;20040;-56
2023/09/29 07:17:20;;;;;;;9.25;3.60;;;20.20;77.30;;;;;;10456986;28;20048;-58
2023/09/29 07:22:21;;;;;;;8.48;3.42;;;20.30;77.20;;;;;;10478290;28;20032;-58
2023/09/29 07:27:22;;;;;;;12.23;3.70;;;20.20;77.20;;;;;;10462166;28;20391;-56
2023/09/29 07:32:27;;;;;;;6.85;3.40;;;20.20;77.30;;;;;;10525278;28;20028;-56
2023/09/29 07:37:28;;;;;;;8.40;4.18;;;20.20;77.40;;;;;;10523608;28;20030;-60
2023/09/29 07:42:29;;;;;;;6.38;3.42;;;20.20;77.30;;;;;;10470720;28;20024;-57
2023/09/29 07:47:30;;;;;;;12.40;4.35;;;20.20;77.60;;;;;;10464133;28;20388;-57
2023/09/29 07:52:30;;;;;;;6.60;3.70;;;20.30;77.80;;;;;;10463556;28;20032;-57
2023/09/29 07:57:32;;;;;;;9.80;3.15;;;20.20;77.50;;;;;;10452238;28;20035;-58
2023/09/29 08:02:32;;;;;;;9.40;2.83;;;20.20;77.30;;;;;;10450596;28;20411;-58
2023/09/29 08:07:34;;;;;;;7.07;3.15;;;20.30;77.00;;;;;;10449828;28;20056;-59
2023/09/29 08:12:36;;;;;;;8.50;3.42;;;20.30;76.90;;;;;;10490113;28;20035;-57
2023/09/29 08:17:36;;;;;;;7.90;2.97;;;20.30;77.20;;;;;;10457191;28;20037;-57
2023/09/29 08:22:37;;;;;;;11.85;4.32;;;20.30;77.30;;;;;;10449392;28;20028;-57
2023/09/29 08:27:39;;;;;;;18.92;5.38;;;20.20;77.50;;;;;;10463106;28;20443;-59
2023/09/29 08:32:42;;;;;;;9.77;3.55;;;20.40;77.60;;;;;;10482064;28;20488;-59
2023/09/29 08:37:45;;;;;;;9.48;3.47;;;20.30;77.40;;;;;;10451886;28;20041;-57
2023/09/29 08:42:50;;;;;;;9.95;3.25;;;20.30;77.50;;;;;;10450263;28;20452;-57
2023/09/29 08:47:51;;;;;;;5.63;3.13;;;20.30;77.50;;;;;;10471844;28;20277;-57
2023/09/29 08:52:53;;;;;;;6.95;2.50;;;20.20;77.50;;;;;;10482725;28;20037;-56
2023/09/29 08:57:55;;;;;;;8.02;2.67;;;20.20;77.50;;;;;;10450759;28;20053;-56
2023/09/29 09:02:58;;;;;;;6.95;2.40;;;20.20;77.60;;;;;;10452408;28;20021;-57
2023/09/29 09:08:01;;;;;;;7.28;2.92;;;20.20;77.60;;;;;;10457351;28;20048;-56
2023/09/29 09:13:02;;;;;;;7.35;3.45;;;20.30;77.40;;;;;;10457041;28;20033;-56
2023/09/29 09:18:04;;;;;;;5.38;2.42;;;20.20;77.30;;;;;;10471413;28;20083;-58
2023/09/29 09:23:04;;;;;;;5.07;2.70;;;20.30;77.40;;;;;;10496104;28;20032;-57
2023/09/29 09:28:06;;;;;;;4.22;2.10;;;20.20;77.20;;;;;;10498965;28;20035;-57
2023/09/29 09:33:06;;;;;;;9.75;2.90;;;20.30;77.30;;;;;;10510950;28;20098;-56
2023/09/29 09:38:07;;;;;;;9.00;3.55;;;20.30;77.90;;;;;;10457896;28;20087;-56
2023/09/29 09:43:10;;;;;;;6.05;2.15;;;20.40;77.90;;;;;;10456233;28;20110;-57
2023/09/29 09:48:15;;;;;;;7.80;3.38;;;20.40;77.90;;;;;;10479138;28;20058;-56
2023/09/29 09:53:20;;;;;;;10.10;3.05;;;20.50;77.80;;;;;;10456047;28;20098;-58
2023/09/29 09:58:23;;;;;;;5.20;2.65;;;20.50;77.40;;;;;;10454678;28;20147;-59
2023/09/29 10:03:26;;;;;;;7.32;2.70;;;20.50;78.20;;;;;;10472757;28;20033;-56
2023/09/29 10:08:30;;;;;;;12.05;3.03;;;20.60;77.90;;;;;;10503521;28;20032;-55
2023/09/29 10:13:35;;;;;;;4.60;2.40;;;20.60;78.00;;;;;;10460344;28;20032;-57
2023/09/29 10:18:36;;;;;;;11.52;2.90;;;20.50;78.00;;;;;;10491045;28;20047;-57
2023/09/29 10:23:48;;;;;;;18.30;4.03;;;20.50;78.00;;;;;;10462480;28;20016;-57
2023/09/29 10:29:00;;;;;;;8.18;3.30;;;20.50;78.00;;;;;;10489420;28;20640;-57
2023/09/29 10:34:01;;;;;;;10.48;3.08;;;20.40;78.20;;;;;;10454878;28;20029;-57
2023/09/29 10:39:04;;;;;;;5.38;3.00;;;20.50;78.30;;;;;;10489141;28;20041;-57
2023/09/29 10:44:05;;;;;;;6.15;2.50;;;20.50;78.70;;;;;;10495669;28;20464;-57
2023/09/29 10:49:06;;;;;;;7.32;2.80;;;20.50;78.50;;;;;;10493918;28;20167;-58
2023/09/29 10:54:07;;;;;;;7.13;3.53;;;20.50;78.50;;;;;;10470766;28;20108;-57
2023/09/29 10:59:09;;;;;;;7.68;2.40;;;20.50;78.70;;;;;;10469397;28;20033;-57
2023/09/29 11:04:10;;;;;;;6.72;2.42;;;20.50;78.70;;;;;;10474120;28;20066;-55
2023/09/29 11:09:28;;;;;;;12.07;2.67;;;20.50;79.30;;;;;;10472387;28;20029;-56
2023/09/29 11:14:36;;;;;;;5.95;2.80;;;20.50;79.80;;;;;;10451964;28;20407;-58
2023/09/29 11:19:37;;;;;;;8.40;2.80;;;20.50;80.80;;;;;;10452645;28;20080;-58
2023/09/29 11:24:43;;;;;;;8.05;3.35;;;20.50;80.10;;;;;;10451633;28;20082;-57
2023/09/29 11:29:44;;;;;;;9.07;3.85;;;20.50;80.20;;;;;;10475546;28;20035;-56
2023/09/29 11:34:46;;;;;;;7.57;3.00;;;20.50;79.80;;;;;;10470332;28;20540;-58
2023/09/29 11:39:47;;;;;;;10.02;2.90;;;20.50;80.00;;;;;;10451489;28;20082;-57
2023/09/29 11:44:48;;;;;;;7.65;2.60;;;20.60;80.00;;;;;;10449466;28;20024;-60
2023/09/29 11:49:49;;;;;;;12.50;3.50;;;20.50;80.40;;;;;;10470172;28;20044;-58
2023/09/29 11:54:49;;;;;;;11.32;4.25;;;20.60;80.00;;;;;;10456112;28;20035;-57
2023/09/29 11:59:50;;;;;;;12.38;3.15;;;20.50;79.50;;;;;;10491613;28;20403;-57
2023/09/29 12:04:51;;;;;;;8.20;2.85;;;20.50;80.30;;;;;;10491549;28;20327;-57
2023/09/29 12:09:52;;;;;;;9.15;3.30;;;20.50;80.00;;;;;;10489550;28;20391;-57
2023/09/29 12:14:53;;;;;;;8.75;3.35;;;20.50;79.70;;;;;;10473268;28;20033;-57
2023/09/29 12:19:54;;;;;;;9.60;3.65;;;20.50;80.60;;;;;;10467400;28;20033;-57
2023/09/29 12:24:55;;;;;;;9.93;3.83;;;20.60;80.60;;;;;;10458957;28;20502;-56
2023/09/29 12:29:56;;;;;;;8.80;3.50;;;20.60;80.80;;;;;;10482007;28;20024;-57
2023/09/29 12:34:57;;;;;;;13.40;2.72;;;20.60;80.70;;;;;;10532139;28;20641;-57
2023/09/29 12:39:58;;;;;;;11.27;3.33;;;20.60;80.50;;;;;;10483410;28;20043;-57
2023/09/29 12:44:58;;;;;;;12.77;4.50;;;20.50;80.10;;;;;;10468074;28;20032;-58
2023/09/29 12:49:59;;;;;;;9.85;3.58;;;20.50;80.30;;;;;;10491337;28;20034;-57
2023/09/29 12:55:00;;;;;;;8.43;3.03;;;20.50;80.30;;;;;;10490755;28;20036;-58
2023/09/29 13:00:01;;;;;;;11.52;3.17;;;20.50;80.40;;;;;;10489064;28;20079;-58
2023/09/29 13:05:02;;;;;;;8.50;3.05;;;20.50;80.30;;;;;;10490559;28;20064;-56
2023/09/29 13:10:02;;;;;;;9.18;3.03;;;20.50;80.30;;;;;;10489972;28;20036;-57
2023/09/29 13:15:05;;;;;;;7.30;2.75;;;20.50;80.30;;;;;;10489050;28;20036;-57
2023/09/29 13:20:07;;;;;;;6.13;2.78;;;20.40;80.20;;;;;;10489293;28;20040;-57
2023/09/29 13:25:09;;;;;;;5.65;2.72;;;20.40;80.10;;;;;;10489962;28;20513;-57
2023/09/29 13:30:11;;;;;;;5.38;2.65;;;20.40;79.70;;;;;;10489417;28;20036;-58
2023/09/29 13:35:11;;;;;;;5.00;2.03;;;20.40;80.10;;;;;;10489777;28;20415;-57
2023/09/29 13:40:12;;;;;;;6.32;2.85;;;20.40;80.10;;;;;;10489974;28;20035;-57
2023/09/29 13:45:13;;;;;;;5.97;2.63;;;20.40;80.10;;;;;;10488811;28;20103;-57
2023/09/29 13:50:14;;;;;;;7.93;2.45;;;20.40;79.90;;;;;;10495705;28;20396;-57
2023/09/29 13:55:15;;;;;;;4.07;2.85;;;20.40;79.70;;;;;;10496659;28;20047;-57
2023/09/29 14:00:18;;;;;;;5.60;2.35;;;20.40;79.70;;;;;;10496348;28;20044;-57
2023/09/29 14:05:21;;;;;;;5.03;2.53;;;20.40;79.60;;;;;;10495890;28;20020;-56
2023/09/29 14:10:22;;;;;;;4.32;2.33;;;20.40;79.60;;;;;;10496665;28;20693;-58
2023/09/29 14:15:23;;;;;;;3.33;1.95;;;20.40;79.50;;;;;;10495871;28;20086;-57
2023/09/29 14:20:23;;;;;;;2.97;1.92;;;20.40;79.50;;;;;;10495650;28;20052;-57
2023/09/29 14:25:24;;;;;;;5.50;2.47;;;20.40;79.40;;;;;;10495519;28;20468;-57
2023/09/29 14:30:25;;;;;;;3.33;1.80;;;20.40;79.30;;;;;;10495392;28;20367;-57
2023/09/29 14:35:25;;;;;;;8.65;1.88;;;20.40;79.20;;;;;;10494901;28;20040;-57
2023/09/29 14:40:29;;;;;;;4.45;2.05;;;20.40;79.20;;;;;;10495108;28;20028;-56
2023/09/29 14:45:30;;;;;;;4.53;2.38;;;20.40;79.20;;;;;;10494017;28;20029;-58
2023/09/29 14:50:30;;;;;;;3.28;1.73;;;20.40;79.10;;;;;;10495212;28;20040;-58
2023/09/29 14:55:39;;;;;;;4.63;2.13;;;20.40;79.10;;;;;;10494518;28;20044;-57
2023/09/29 15:00:43;;;;;;;3.23;1.70;;;20.40;79.10;;;;;;10493637;28;20025;-57
2023/09/29 15:05:44;;;;;;;4.25;2.20;;;20.40;79.00;;;;;;10494254;28;20021;-57
2023/09/29 15:10:46;;;;;;;7.30;1.73;;;20.30;78.90;;;;;;10494164;28;20032;-56
2023/09/29 15:15:48;;;;;;;3.97;1.83;;;20.40;78.90;;;;;;10492880;28;20028;-57
2023/09/29 15:20:50;;;;;;;5.32;2.22;;;20.40;78.90;;;;;;10493728;28;20032;-57
2023/09/29 15:25:52;;;;;;;3.72;1.90;;;20.30;78.80;;;;;;10493233;28;20020;-57
2023/09/29 15:30:52;;;;;;;4.93;2.17;;;20.30;78.60;;;;;;10517185;28;20418;-57
2023/09/29 15:35:54;;;;;;;3.20;1.85;;;20.40;78.60;;;;;;10534856;28;20042;-57
2023/09/29 15:40:55;;;;;;;6.20;2.03;;;20.40;78.50;;;;;;10533566;28;20498;-57
2023/09/29 15:45:56;;;;;;;4.30;2.60;;;20.30;78.40;;;;;;10523958;28;20024;-57
2023/09/29 15:50:57;;;;;;;4.80;2.13;;;20.30;79.00;;;;;;10492710;28;20395;-57
2023/09/29 15:55:57;;;;;;;3.58;2.20;;;20.30;78.40;;;;;;10491271;28;20036;-57
2023/09/29 16:00:58;;;;;;;5.72;1.85;;;20.30;78.30;;;;;;10492350;28;20028;-57
2023/09/29 16:06:06;;;;;;;4.60;2.30;;;20.30;78.30;;;;;;10490422;28;20029;-58
2023/09/29 16:11:07;;;;;;;3.25;1.73;;;20.30;78.20;;;;;;10490996;28;20447;-57
2023/09/29 16:16:08;;;;;;;2.78;1.80;;;20.40;78.30;;;;;;10490976;28;20259;-57
2023/09/29 16:21:17;;;;;;;4.90;2.40;;;20.30;78.30;;;;;;10491201;28;20047;-57
2023/09/29 16:26:19;;;;;;;;;;;20.30;78.30;;;;;;10491488;28;20654;-57
2023/09/29 16:31:20;;;;;;;3.70;2.05;;;20.30;78.20;;;;;;10520028;28;19994;-57
2023/09/29 16:36:22;;;;;;;4.68;1.98;;;20.30;78.10;;;;;;10532276;28;20032;-58
2023/09/29 16:41:28;;;;;;;3.47;2.13;;;20.30;78.10;;;;;;10532730;28;20550;-57
2023/09/29 16:46:29;;;;;;;3.35;1.83;;;20.30;78.10;;;;;;10517683;28;20071;-57
2023/09/29 16:51:31;;;;;;;2.92;2.05;;;20.30;78.10;;;;;;10490423;28;20077;-57
2023/09/29 16:56:32;;;;;;;3.50;1.83;;;20.30;78.00;;;;;;10490412;28;20194;-57
2023/09/29 17:01:33;;;;;;;2.92;2.00;;;20.20;77.90;;;;;;10490279;28;20029;-56
2023/09/29 17:06:33;;;;;;;3.33;1.80;;;20.20;78.00;;;;;;10489763;28;20032;-57
2023/09/29 17:11:34;;;;;;;4.32;2.30;;;20.20;78.00;;;;;;10490226;28;20463;-57
2023/09/29 17:16:35;;;;;;;2.47;1.52;;;20.20;78.10;;;;;;10489821;28;20078;-57
2023/09/29 17:21:36;;;;;;;4.57;2.47;;;20.20;78.10;;;;;;10489886;28;20039;-58
2023/09/29 17:26:37;;;;;;;3.08;1.63;;;20.20;78.00;;;;;;10497934;28;20381;-56
2023/09/29 17:31:38;;;;;;;3.33;1.83;;;20.20;78.00;;;;;;10529018;28;20051;-57
2023/09/29 17:36:39;;;;;;;5.00;2.47;;;20.20;77.90;;;;;;10538872;28;20061;-57
2023/09/29 17:41:40;;;;;;;5.38;2.50;;;20.20;77.90;;;;;;10539413;28;20379;-57
2023/09/29 17:46:40;;;;;;;4.40;2.47;;;20.20;77.80;;;;;;10523132;28;20032;-57
2023/09/29 17:51:42;;;;;;;4.75;1.77;;;20.20;77.80;;;;;;10496130;28;20033;-57
2023/09/29 17:56:43;;;;;;;2.95;1.70;;;20.20;77.80;;;;;;10494550;28;20738;-56
2023/09/29 18:01:44;;;;;;;5.50;1.95;;;20.10;77.70;;;;;;10494501;28;20086;-56
2023/09/29 18:06:47;;;;;;;3.03;1.80;;;20.20;77.80;;;;;;10494528;28;20024;-56
2023/09/29 18:11:47;;;;;;;3.67;2.03;;;20.20;77.80;;;;;;10494224;28;20082;-55
2023/09/29 18:16:48;;;;;;;3.28;1.60;;;20.10;77.80;;;;;;10492410;28;20100;-56
2023/09/29 18:21:49;;;;;;;4.95;2.17;;;20.10;77.80;;;;;;10494407;28;20506;-56
2023/09/29 18:26:50;;;;;;;3.55;1.90;;;20.10;77.70;;;;;;10493328;28;20039;-56
2023/09/29 18:31:51;;;;;;;4.88;2.97;;;20.10;77.80;;;;;;10525451;28;20040;-55
2023/09/29 18:36:51;;;;;;;3.65;2.40;;;20.10;77.80;;;;;;10535508;28;20380;-56
2023/09/29 18:41:52;;;;;;;3.33;2.17;;;20.10;77.70;;;;;;10535806;28;20044;-57
2023/09/29 18:46:53;;;;;;;4.22;2.40;;;20.10;77.70;;;;;;10517483;28;20028;-56
2023/09/29 18:51:59;;;;;;;5.07;2.65;;;20.10;77.70;;;;;;10493015;28;20396;-57
2023/09/29 18:56:59;;;;;;;4.38;2.10;;;20.10;77.70;;;;;;10492523;28;20051;-55
2023/09/29 19:02:01;;;;;;;3.72;2.28;;;20.10;77.70;;;;;;10492392;28;20040;-56
2023/09/29 19:07:02;;;;;;;4.10;1.95;;;20.10;77.60;;;;;;10491814;28;20024;-57
2023/09/29 19:12:03;;;;;;;3.47;2.05;;;20.00;77.50;;;;;;10492020;28;20035;-56
2023/09/29 19:17:03;;;;;;;3.78;2.10;;;20.10;77.50;;;;;;10490002;28;20427;-55
2023/09/29 19:22:04;;;;;;;3.15;2.10;;;20.10;77.50;;;;;;10491773;28;20361;-55
2023/09/29 19:27:05;;;;;;;4.38;2.78;;;20.10;77.40;;;;;;10490861;28;20029;-56
2023/09/29 19:32:06;;;;;;;3.47;2.15;;;20.00;77.20;;;;;;10526323;28;20028;-57
2023/09/29 19:37:07;;;;;;;2.97;1.98;;;20.00;77.20;;;;;;10533048;28;20028;-56
2023/09/29 19:42:07;;;;;;;4.13;2.10;;;20.00;77.10;;;;;;10532412;28;20032;-56
2023/09/29 19:47:08;;;;;;;3.47;2.50;;;20.00;77.10;;;;;;10511558;28;20484;-56
2023/09/29 19:52:09;;;;;;;4.20;2.90;;;20.00;77.00;;;;;;10490934;28;20044;-57
2023/09/29 19:57:10;;;;;;;4.47;2.42;;;20.00;77.00;;;;;;10490145;28;20402;-56
2023/09/29 20:02:11;;;;;;;4.63;2.50;;;20.00;76.90;;;;;;10489972;28;20064;-56
2023/09/29 20:07:12;;;;;;;4.03;2.25;;;20.00;76.90;;;;;;10488956;28;20561;-56
2023/09/29 20:12:13;;;;;;;4.85;2.65;;;20.00;76.80;;;;;;10489868;28;20043;-56
2023/09/29 20:17:15;;;;;;;5.70;2.25;;;20.00;76.70;;;;;;10488725;28;20423;-55
2023/09/29 20:22:16;;;;;;;3.63;1.98;;;20.00;76.70;;;;;;10489962;28;20056;-56
2023/09/29 20:27:16;;;;;;;4.82;2.42;;;20.00;76.50;;;;;;10488811;28;20029;-55
2023/09/29 20:32:18;;;;;;;5.03;2.47;;;20.00;76.50;;;;;;10525201;28;20031;-55
2023/09/29 20:37:20;;;;;;;4.03;2.45;;;20.00;76.40;;;;;;10530570;28;20036;-55
2023/09/29 20:42:21;;;;;;;4.28;2.47;;;20.00;76.40;;;;;;10530868;28;20032;-57
2023/09/29 20:47:22;;;;;;;4.63;2.80;;;20.00;76.40;;;;;;10508668;28;20534;-56
2023/09/29 20:52:22;;;;;;;4.68;2.72;;;19.90;76.30;;;;;;10488834;28;20021;-56
2023/09/29 20:57:25;;;;;;;4.63;2.47;;;19.90;76.00;;;;;;10502543;28;20073;-55
2023/09/29 21:02:26;;;;;;;5.13;2.70;;;19.90;76.00;;;;;;10488323;28;20111;-56
2023/09/29 21:07:27;;;;;;;4.93;2.30;;;19.90;76.00;;;;;;10487833;28;20411;-57
2023/09/29 21:12:28;;;;;;;4.75;2.65;;;19.90;76.10;;;;;;10487183;28;20499;-56
2023/09/29 21:17:28;;;;;;;5.53;2.50;;;19.90;75.90;;;;;;10487813;28;20102;-57
2023/09/29 21:22:29;;;;;;;3.97;2.53;;;19.90;76.00;;;;;;10489117;28;20361;-56
2023/09/29 21:27:30;;;;;;;3.83;2.53;;;19.90;76.00;;;;;;10487661;28;20033;-56
2023/09/29 21:32:32;;;;;;;5.88;2.72;;;19.90;76.60;;;;;;10541517;28;20028;-56
2023/09/29 21:37:33;;;;;;;5.20;2.92;;;19.90;76.00;;;;;;10529387;28;20028;-55
2023/09/29 21:42:33;;;;;;;6.25;2.72;;;19.90;75.90;;;;;;10529390;28;20047;-55
2023/09/29 21:47:34;;;;;;;5.22;2.42;;;19.90;75.90;;;;;;10505364;28;20086;-57
2023/09/29 21:52:35;;;;;;;4.60;2.17;;;19.90;75.80;;;;;;10487478;28;20032;-55
2023/09/29 21:57:36;;;;;;;8.82;3.10;;;19.80;75.90;;;;;;10486881;28;20021;-56
2023/09/29 22:02:36;;;;;;;4.93;2.47;;;19.90;75.70;;;;;;10487706;28;20036;-56
2023/09/29 22:07:37;;;;;;;3.85;2.22;;;19.80;75.70;;;;;;10487703;28;20028;-56
2023/09/29 22:12:39;;;;;;;5.55;2.83;;;19.80;75.60;;;;;;10494283;28;20480;-56
2023/09/29 22:17:41;;;;;;;4.10;2.30;;;19.80;75.70;;;;;;10493936;28;20403;-57
2023/09/29 22:22:42;;;;;;;9.98;3.15;;;19.80;75.50;;;;;;10494431;28;20467;-56
2023/09/29 22:27:42;;;;;;;4.25;2.08;;;19.80;75.40;;;;;;10493690;28;20025;-56
2023/09/29 22:32:43;;;;;;;5.78;3.42;;;19.80;75.50;;;;;;10533491;28;20040;-56
2023/09/29 22:37:44;;;;;;;5.93;2.42;;;19.80;75.50;;;;;;10535032;28;20395;-56
2023/09/29 22:42:45;;;;;;;4.88;2.75;;;19.80;75.40;;;;;;10534977;28;20063;-57
2023/09/29 22:47:46;;;;;;;6.07;2.90;;;19.80;75.40;;;;;;10509282;28;20029;-57
2023/09/29 22:52:46;;;;;;;4.68;2.25;;;19.80;75.90;;;;;;10492872;28;20036;-57
2023/09/29 22:57:47;;;;;;;3.45;2.25;;;19.80;75.30;;;;;;10492605;28;20526;-56
2023/09/29 23:02:48;;;;;;;5.93;2.20;;;19.80;75.20;;;;;;10492397;28;20043;-57
2023/09/29 23:07:49;;;;;;;5.22;2.38;;;19.80;75.20;;;;;;10491731;28;20028;-55
2023/09/29 23:12:51;;;;;;;3.55;2.38;;;19.80;75.00;;;;;;10491985;28;20077;-56
2023/09/29 23:17:54;;;;;;;5.28;2.60;;;19.80;75.20;;;;;;10491271;28;20051;-56
2023/09/29 23:22:57;;;;;;;4.55;2.38;;;19.70;75.00;;;;;;10491156;28;20304;-56
2023/09/29 23:27:59;;;;;;;4.25;2.80;;;19.80;75.10;;;;;;10491574;28;20107;-56
2023/09/29 23:33:00;;;;;;;4.03;2.55;;;19.70;74.90;;;;;;10451185;28;20037;-57
2023/09/29 23:38:01;;;;;;;4.45;2.22;;;19.70;74.80;;;;;;10447822;28;20028;-57
2023/09/29 23:43:02;;;;;;;4.80;2.20;;;19.70;74.90;;;;;;10449732;28;20472;-56
2023/09/29 23:48:03;;;;;;;4.10;2.22;;;19.70;74.90;;;;;;10475804;28;20090;-57
2023/09/29 23:53:04;;;;;;;4.45;2.45;;;19.70;74.90;;;;;;10490888;28;20475;-56
2023/09/29 23:58:05;;;;;;;4.65;2.63;;;19.70;74.80;;;;;;10490193;28;20614;-56
